LFSO

Nancy-Ochey (BA 133) Air Base Airport

Nancy/Ochey, France
TAF AMD LFSO 230620Z 2306/2403 14005KT 6000 OVC005 BECMG 2306/2307 1500 -SN OVC004 TEMPO 2307/2311 0700 SN FZFG OVC002 BECMG 2311/2313 6000 NSW OVC010 TEMPO 2313/2318 1000 -SHSN BKN003 BKN010 PROB40 2402/2403 0300 FZFG VV///
Issued Valid From Valid To
Jan-23 @ 06:20 UTC
(an hour ago)
Jan-23 @ 06:00 UTC
(an hour ago)
Jan-24 @ 03:00 UTC
(in 20 hours)
Jan-23 @ 06:00 to Jan-24 @ 03:00
TAF AMD LFSO 230620Z 2306/2403 14005KT 6000 OVC005
Wind Visibility Clouds
140° at 5 knots 6,003 meters
  • Overcast at 500' AGL
Becoming Jan-23 @ 06:00 to Jan-23 @ 11:00
BECMG 2306/2307 1500 -SN OVC004
Wind Visibility Clouds Conditions
140° at 5 knots 1,497 meters
  • Overcast at 400' AGL
  • Light Snow
Temporary Jan-23 @ 07:00 to Jan-23 @ 11:00
TEMPO 2307/2311 0700 SN FZFG OVC002
Visibility Clouds Conditions
692 meters
  • Overcast at 200' AGL
  • Snow
  • Freezing
  • Fog
Becoming Jan-23 @ 11:00 to Jan-24 @ 03:00
BECMG 2311/2313 6000 NSW OVC010
Wind Visibility Clouds Conditions
140° at 5 knots 6,003 meters
  • Overcast at 1,000' AGL
Temporary Jan-23 @ 13:00 to Jan-23 @ 18:00
TEMPO 2313/2318 1000 -SHSN BKN003 BKN010
Visibility Clouds Conditions
998 meters
  • Broken at 300' AGL
  • Broken at 1,000' AGL
  • Light Snow
Probable  (Probability 40%) Jan-24 @ 02:00 to Jan-24 @ 03:00
PROB40 2402/2403 0300 FZFG VV///
Visibility Conditions
306 meters
  • Freezing
  • Fog
TAF AMD LFSO 230620Z 2306/2403 14005KT 6000 OVC005 BECMG 2306/2307 1500 -SN OVC004 TEMPO 2307/2311 0700 SN FZFG OVC002 BECMG 2311/2313 6000 NSW OVC010 TEMPO 2313/2318 1000 -SHSN BKN003 BKN010 PROB40 2402/2403 0300 FZFG VV///
Issued Jan-23 @ 06:20 UTC
(an hour ago)
Valid From Jan-23 @ 06:00 UTC
(an hour ago)
Valid To Jan-24 @ 03:00 UTC
(in 20 hours)
Jan-23 @ 06:00 - Jan-24 @ 03:00
Wind Visibility
140° at 5 knots 6,003 meters
Clouds
  • Overcast at 500' AGL
Becoming Jan-23 @ 06:00 - Jan-23 @ 11:00
Wind Visibility
140° at 5 knots 1,497 meters
Clouds
  • Overcast at 400' AGL
Conditions
  • Light Snow
Temporary Jan-23 @ 07:00 - Jan-23 @ 11:00
Clouds
  • Overcast at 200' AGL
Conditions
  • Snow
  • Freezing
  • Fog
Becoming Jan-23 @ 11:00 - Jan-24 @ 03:00
Wind Visibility
140° at 5 knots 6,003 meters
Clouds
  • Overcast at 1,000' AGL
Conditions
Temporary Jan-23 @ 13:00 - Jan-23 @ 18:00
Clouds
  • Broken at 300' AGL
  • Broken at 1,000' AGL
Conditions
  • Light Snow
Probability 40% Probable Jan-24 @ 02:00 - Jan-24 @ 03:00
Conditions
  • Freezing
  • Fog